sensor_id;sensor_type;location;lat;lon;timestamp;temperature;humidity
12557;DHT22;6344;49.932;8.308;2023-04-28T00:00:46;11.60;99.90
12557;DHT22;6344;49.932;8.308;2023-04-28T00:03:13;11.60;99.90
12557;DHT22;6344;49.932;8.308;2023-04-28T00:05:39;11.50;99.90
12557;DHT22;6344;49.932;8.308;2023-04-28T00:08:06;11.70;99.90
12557;DHT22;6344;49.932;8.308;2023-04-28T00:10:34;11.50;99.90
12557;DHT22;6344;49.932;8.308;2023-04-28T00:13:01;11.70;99.90
12557;DHT22;6344;49.932;8.308;2023-04-28T00:15:27;11.80;99.90
12557;DHT22;6344;49.932;8.308;2023-04-28T00:17:54;11.70;99.90
12557;DHT22;6344;49.932;8.308;2023-04-28T00:20:21;11.60;99.90
12557;DHT22;6344;49.932;8.308;2023-04-28T00:22:47;11.50;99.90
12557;DHT22;6344;49.932;8.308;2023-04-28T00:25:14;11.30;99.90
12557;DHT22;6344;49.932;8.308;2023-04-28T00:27:42;11.30;99.90
12557;DHT22;6344;49.932;8.308;2023-04-28T00:30:10;11.30;99.90
12557;DHT22;6344;49.932;8.308;2023-04-28T00:32:36;11.30;99.90
12557;DHT22;6344;49.932;8.308;2023-04-28T00:35:03;11.40;99.90
12557;DHT22;6344;49.932;8.308;2023-04-28T00:37:34;11.40;99.90
12557;DHT22;6344;49.932;8.308;2023-04-28T00:40:01;11.40;99.90
12557;DHT22;6344;49.932;8.308;2023-04-28T00:42:28;11.40;99.90
12557;DHT22;6344;49.932;8.308;2023-04-28T00:44:56;11.30;99.90
12557;DHT22;6344;49.932;8.308;2023-04-28T00:47:23;11.60;99.90
12557;DHT22;6344;49.932;8.308;2023-04-28T00:49:50;11.90;99.90
12557;DHT22;6344;49.932;8.308;2023-04-28T00:52:17;11.80;99.90
12557;DHT22;6344;49.932;8.308;2023-04-28T00:54:44;11.50;99.90
12557;DHT22;6344;49.932;8.308;2023-04-28T00:57:12;11.40;99.90
12557;DHT22;6344;49.932;8.308;2023-04-28T00:59:39;11.40;99.90
12557;DHT22;6344;49.932;8.308;2023-04-28T01:02:07;11.30;99.90
12557;DHT22;6344;49.932;8.308;2023-04-28T01:04:35;11.30;99.90
12557;DHT22;6344;49.932;8.308;2023-04-28T01:07:02;11.40;99.90
12557;DHT22;6344;49.932;8.308;2023-04-28T01:09:28;11.50;99.90
12557;DHT22;6344;49.932;8.308;2023-04-28T01:11:55;11.30;99.90
12557;DHT22;6344;49.932;8.308;2023-04-28T01:14:22;11.20;99.90
12557;DHT22;6344;49.932;8.308;2023-04-28T01:16:49;11.10;99.90
12557;DHT22;6344;49.932;8.308;2023-04-28T01:19:20;11.00;99.90
12557;DHT22;6344;49.932;8.308;2023-04-28T01:21:47;10.90;99.90
12557;DHT22;6344;49.932;8.308;2023-04-28T01:24:15;10.90;99.90
12557;DHT22;6344;49.932;8.308;2023-04-28T01:26:42;10.80;1.00
12557;DHT22;6344;49.932;8.308;2023-04-28T01:29:09;11.00;95.70
12557;DHT22;6344;49.932;8.308;2023-04-28T01:31:35;11.00;99.90
12557;DHT22;6344;49.932;8.308;2023-04-28T01:34:02;10.90;99.90
12557;DHT22;6344;49.932;8.308;2023-04-28T01:36:29;10.80;99.90
12557;DHT22;6344;49.932;8.308;2023-04-28T01:38:56;10.80;99.90
12557;DHT22;6344;49.932;8.308;2023-04-28T01:41:24;10.70;99.90
12557;DHT22;6344;49.932;8.308;2023-04-28T01:43:51;10.60;99.90
12557;DHT22;6344;49.932;8.308;2023-04-28T01:46:17;10.70;99.90
12557;DHT22;6344;49.932;8.308;2023-04-28T01:48:44;10.60;99.90
12557;DHT22;6344;49.932;8.308;2023-04-28T01:51:11;10.60;99.90
12557;DHT22;6344;49.932;8.308;2023-04-28T01:53:38;10.50;99.90
12557;DHT22;6344;49.932;8.308;2023-04-28T01:56:05;10.50;99.90
12557;DHT22;6344;49.932;8.308;2023-04-28T01:58:33;10.50;99.90
12557;DHT22;6344;49.932;8.308;2023-04-28T02:00:59;10.50;99.90
12557;DHT22;6344;49.932;8.308;2023-04-28T02:03:26;10.80;99.90
12557;DHT22;6344;49.932;8.308;2023-04-28T02:05:53;10.70;99.90
12557;DHT22;6344;49.932;8.308;2023-04-28T02:08:19;10.60;99.90
12557;DHT22;6344;49.932;8.308;2023-04-28T02:10:46;10.60;99.90
12557;DHT22;6344;49.932;8.308;2023-04-28T02:13:13;10.60;99.90
12557;DHT22;6344;49.932;8.308;2023-04-28T02:15:43;10.70;99.90
12557;DHT22;6344;49.932;8.308;2023-04-28T02:18:09;10.60;99.90
12557;DHT22;6344;49.932;8.308;2023-04-28T02:20:36;10.60;99.90
12557;DHT22;6344;49.932;8.308;2023-04-28T02:23:03;10.50;99.90
12557;DHT22;6344;49.932;8.308;2023-04-28T02:25:29;10.50;99.90
12557;DHT22;6344;49.932;8.308;2023-04-28T02:27:56;10.50;99.90
12557;DHT22;6344;49.932;8.308;2023-04-28T02:30:23;10.50;99.90
12557;DHT22;6344;49.932;8.308;2023-04-28T02:32:51;10.50;99.90
12557;DHT22;6344;49.932;8.308;2023-04-28T02:35:18;10.40;99.90
12557;DHT22;6344;49.932;8.308;2023-04-28T02:37:44;10.40;99.90
12557;DHT22;6344;49.932;8.308;2023-04-28T02:40:12;10.50;99.90
12557;DHT22;6344;49.932;8.308;2023-04-28T02:42:38;10.50;99.90
12557;DHT22;6344;49.932;8.308;2023-04-28T02:45:06;10.50;99.90
12557;DHT22;6344;49.932;8.308;2023-04-28T02:47:33;10.50;99.90
12557;DHT22;6344;49.932;8.308;2023-04-28T02:50:00;10.50;99.90
12557;DHT22;6344;49.932;8.308;2023-04-28T02:52:27;10.50;99.90
12557;DHT22;6344;49.932;8.308;2023-04-28T02:54:54;10.50;99.90
12557;DHT22;6344;49.932;8.308;2023-04-28T02:57:22;10.60;99.90
12557;DHT22;6344;49.932;8.308;2023-04-28T02:59:48;10.60;99.90
12557;DHT22;6344;49.932;8.308;2023-04-28T03:02:15;10.60;99.90
12557;DHT22;6344;49.932;8.308;2023-04-28T03:04:42;10.60;99.90
12557;DHT22;6344;49.932;8.308;2023-04-28T03:07:10;10.60;99.90
12557;DHT22;6344;49.932;8.308;2023-04-28T03:09:36;10.50;99.90
12557;DHT22;6344;49.932;8.308;2023-04-28T03:12:03;10.70;99.90
12557;DHT22;6344;49.932;8.308;2023-04-28T03:14:30;10.60;99.90
12557;DHT22;6344;49.932;8.308;2023-04-28T03:16:57;10.50;99.90
12557;DHT22;6344;49.932;8.308;2023-04-28T03:19:23;10.40;99.90
12557;DHT22;6344;49.932;8.308;2023-04-28T03:21:50;10.30;99.90
12557;DHT22;6344;49.932;8.308;2023-04-28T03:24:18;10.30;99.90
12557;DHT22;6344;49.932;8.308;2023-04-28T03:26:45;10.30;99.90
12557;DHT22;6344;49.932;8.308;2023-04-28T03:29:12;10.40;99.90
12557;DHT22;6344;49.932;8.308;2023-04-28T03:31:38;10.40;99.90
12557;DHT22;6344;49.932;8.308;2023-04-28T03:34:05;10.60;99.90
12557;DHT22;6344;49.932;8.308;2023-04-28T03:36:31;10.60;99.90
12557;DHT22;6344;49.932;8.308;2023-04-28T03:38:58;10.60;99.90
12557;DHT22;6344;49.932;8.308;2023-04-28T03:41:26;10.50;99.90
12557;DHT22;6344;49.932;8.308;2023-04-28T03:43:53;10.60;99.90
12557;DHT22;6344;49.932;8.308;2023-04-28T03:46:21;10.60;99.90
12557;DHT22;6344;49.932;8.308;2023-04-28T03:48:48;10.60;99.90
12557;DHT22;6344;49.932;8.308;2023-04-28T03:51:14;10.60;99.90
12557;DHT22;6344;49.932;8.308;2023-04-28T03:53:41;10.60;99.90
12557;DHT22;6344;49.932;8.308;2023-04-28T03:56:08;10.70;99.90
12557;DHT22;6344;49.932;8.308;2023-04-28T03:58:36;10.70;99.90
12557;DHT22;6344;49.932;8.308;2023-04-28T04:01:02;10.70;99.90
12557;DHT22;6344;49.932;8.308;2023-04-28T04:03:30;10.60;99.90
12557;DHT22;6344;49.932;8.308;2023-04-28T04:05:57;10.60;99.90
12557;DHT22;6344;49.932;8.308;2023-04-28T04:08:24;10.50;99.90
12557;DHT22;6344;49.932;8.308;2023-04-28T04:10:50;10.50;99.90
12557;DHT22;6344;49.932;8.308;2023-04-28T04:13:19;10.50;99.90
12557;DHT22;6344;49.932;8.308;2023-04-28T04:15:47;10.50;99.90
12557;DHT22;6344;49.932;8.308;2023-04-28T04:18:14;10.70;99.90
12557;DHT22;6344;49.932;8.308;2023-04-28T04:20:41;10.60;99.90
12557;DHT22;6344;49.932;8.308;2023-04-28T04:23:07;10.70;99.90
12557;DHT22;6344;49.932;8.308;2023-04-28T04:25:34;10.80;99.90
12557;DHT22;6344;49.932;8.308;2023-04-28T04:28:01;10.80;99.90
12557;DHT22;6344;49.932;8.308;2023-04-28T04:30:28;10.70;99.90
12557;DHT22;6344;49.932;8.308;2023-04-28T04:32:55;10.70;99.90
12557;DHT22;6344;49.932;8.308;2023-04-28T04:35:22;10.60;99.90
12557;DHT22;6344;49.932;8.308;2023-04-28T04:37:49;10.70;99.90
12557;DHT22;6344;49.932;8.308;2023-04-28T04:40:16;10.80;99.90
12557;DHT22;6344;49.932;8.308;2023-04-28T04:42:42;10.80;99.90
12557;DHT22;6344;49.932;8.308;2023-04-28T04:45:09;10.80;99.90
12557;DHT22;6344;49.932;8.308;2023-04-28T04:47:36;10.60;99.90
12557;DHT22;6344;49.932;8.308;2023-04-28T04:50:05;10.50;99.90
12557;DHT22;6344;49.932;8.308;2023-04-28T04:52:32;10.50;99.90
12557;DHT22;6344;49.932;8.308;2023-04-28T04:54:59;10.30;99.90
12557;DHT22;6344;49.932;8.308;2023-04-28T04:57:25;10.40;99.90
12557;DHT22;6344;49.932;8.308;2023-04-28T04:59:52;10.40;99.90
12557;DHT22;6344;49.932;8.308;2023-04-28T05:02:19;10.50;99.90
12557;DHT22;6344;49.932;8.308;2023-04-28T05:04:45;10.20;99.90
12557;DHT22;6344;49.932;8.308;2023-04-28T05:07:13;10.10;99.90
12557;DHT22;6344;49.932;8.308;2023-04-28T05:09:40;10.20;99.90
12557;DHT22;6344;49.932;8.308;2023-04-28T05:12:06;10.10;99.90
12557;DHT22;6344;49.932;8.308;2023-04-28T05:14:33;10.00;99.90
12557;DHT22;6344;49.932;8.308;2023-04-28T05:17:00;10.00;99.90
12557;DHT22;6344;49.932;8.308;2023-04-28T05:19:27;10.10;99.90
12557;DHT22;6344;49.932;8.308;2023-04-28T05:21:53;9.90;99.90
12557;DHT22;6344;49.932;8.308;2023-04-28T05:24:21;9.90;99.90
12557;DHT22;6344;49.932;8.308;2023-04-28T05:26:49;9.90;99.90
12557;DHT22;6344;49.932;8.308;2023-04-28T05:29:15;9.80;99.90
12557;DHT22;6344;49.932;8.308;2023-04-28T05:31:42;9.80;99.90
12557;DHT22;6344;49.932;8.308;2023-04-28T05:34:09;9.90;99.90
12557;DHT22;6344;49.932;8.308;2023-04-28T05:36:35;10.00;99.90
12557;DHT22;6344;49.932;8.308;2023-04-28T05:39:03;10.00;99.90
12557;DHT22;6344;49.932;8.308;2023-04-28T05:41:31;10.00;99.90
12557;DHT22;6344;49.932;8.308;2023-04-28T05:43:57;10.00;99.90
12557;DHT22;6344;49.932;8.308;2023-04-28T05:46:24;9.80;99.90
12557;DHT22;6344;49.932;8.308;2023-04-28T05:48:50;9.90;99.90
12557;DHT22;6344;49.932;8.308;2023-04-28T05:51:17;10.00;99.90
12557;DHT22;6344;49.932;8.308;2023-04-28T05:53:44;10.10;99.90
12557;DHT22;6344;49.932;8.308;2023-04-28T05:56:13;10.00;99.90
12557;DHT22;6344;49.932;8.308;2023-04-28T05:58:42;10.00;99.90
12557;DHT22;6344;49.932;8.308;2023-04-28T06:01:08;10.00;99.90
12557;DHT22;6344;49.932;8.308;2023-04-28T06:03:36;10.10;99.90
12557;DHT22;6344;49.932;8.308;2023-04-28T06:06:02;10.20;99.90
12557;DHT22;6344;49.932;8.308;2023-04-28T06:08:29;10.20;99.90
12557;DHT22;6344;49.932;8.308;2023-04-28T06:10:56;10.20;99.90
12557;DHT22;6344;49.932;8.308;2023-04-28T06:13:22;10.10;99.90
12557;DHT22;6344;49.932;8.308;2023-04-28T06:15:50;10.20;99.90
12557;DHT22;6344;49.932;8.308;2023-04-28T06:18:17;10.10;99.90
12557;DHT22;6344;49.932;8.308;2023-04-28T06:20:44;10.10;99.90
12557;DHT22;6344;49.932;8.308;2023-04-28T06:23:10;10.20;99.90
12557;DHT22;6344;49.932;8.308;2023-04-28T06:25:37;10.20;99.90
12557;DHT22;6344;49.932;8.308;2023-04-28T06:28:04;10.30;99.90
12557;DHT22;6344;49.932;8.308;2023-04-28T06:30:32;10.50;99.90
12557;DHT22;6344;49.932;8.308;2023-04-28T06:33:01;10.50;99.90
12557;DHT22;6344;49.932;8.308;2023-04-28T06:35:28;10.50;99.90
12557;DHT22;6344;49.932;8.308;2023-04-28T06:37:54;10.50;99.90
12557;DHT22;6344;49.932;8.308;2023-04-28T06:40:21;10.60;99.90
12557;DHT22;6344;49.932;8.308;2023-04-28T06:42:48;10.60;99.90
12557;DHT22;6344;49.932;8.308;2023-04-28T06:45:14;10.60;99.90
12557;DHT22;6344;49.932;8.308;2023-04-28T06:47:41;10.70;99.90
12557;DHT22;6344;49.932;8.308;2023-04-28T06:50:09;10.80;99.90
12557;DHT22;6344;49.932;8.308;2023-04-28T06:52:36;10.80;99.90
12557;DHT22;6344;49.932;8.308;2023-04-28T06:55:04;10.80;99.90
12557;DHT22;6344;49.932;8.308;2023-04-28T06:57:31;10.90;99.90
12557;DHT22;6344;49.932;8.308;2023-04-28T06:59:58;10.90;99.90
12557;DHT22;6344;49.932;8.308;2023-04-28T07:02:24;11.00;99.90
12557;DHT22;6344;49.932;8.308;2023-04-28T07:04:51;11.00;99.90
12557;DHT22;6344;49.932;8.308;2023-04-28T07:07:19;10.90;99.90
12557;DHT22;6344;49.932;8.308;2023-04-28T07:09:46;11.00;99.90
12557;DHT22;6344;49.932;8.308;2023-04-28T07:12:12;10.90;99.90
12557;DHT22;6344;49.932;8.308;2023-04-28T07:14:39;10.90;99.90
12557;DHT22;6344;49.932;8.308;2023-04-28T07:17:06;10.80;99.90
12557;DHT22;6344;49.932;8.308;2023-04-28T07:19:32;10.90;99.90
12557;DHT22;6344;49.932;8.308;2023-04-28T07:21:59;10.80;99.90
12557;DHT22;6344;49.932;8.308;2023-04-28T07:24:27;10.80;99.90
12557;DHT22;6344;49.932;8.308;2023-04-28T07:26:55;11.10;99.90
12557;DHT22;6344;49.932;8.308;2023-04-28T07:29:21;11.30;99.90
12557;DHT22;6344;49.932;8.308;2023-04-28T07:31:48;11.40;99.90
12557;DHT22;6344;49.932;8.308;2023-04-28T07:34:15;11.50;99.90
12557;DHT22;6344;49.932;8.308;2023-04-28T07:36:41;11.60;99.90
12557;DHT22;6344;49.932;8.308;2023-04-28T07:39:08;11.80;99.90
12557;DHT22;6344;49.932;8.308;2023-04-28T07:41:37;11.70;99.90
12557;DHT22;6344;49.932;8.308;2023-04-28T07:44:04;11.80;99.90
12557;DHT22;6344;49.932;8.308;2023-04-28T07:46:32;11.70;99.90
12557;DHT22;6344;49.932;8.308;2023-04-28T07:48:59;11.70;99.90
12557;DHT22;6344;49.932;8.308;2023-04-28T07:51:26;11.70;99.90
12557;DHT22;6344;49.932;8.308;2023-04-28T07:53:53;11.70;99.90
12557;DHT22;6344;49.932;8.308;2023-04-28T07:56:19;12.00;99.90
12557;DHT22;6344;49.932;8.308;2023-04-28T07:58:48;11.90;99.90
12557;DHT22;6344;49.932;8.308;2023-04-28T08:01:15;11.80;99.90
12557;DHT22;6344;49.932;8.308;2023-04-28T08:03:42;11.60;99.90
12557;DHT22;6344;49.932;8.308;2023-04-28T08:06:08;11.60;99.90
12557;DHT22;6344;49.932;8.308;2023-04-28T08:08:35;11.70;99.90
12557;DHT22;6344;49.932;8.308;2023-04-28T08:11:02;11.90;99.90
12557;DHT22;6344;49.932;8.308;2023-04-28T08:13:28;12.10;99.90
12557;DHT22;6344;49.932;8.308;2023-04-28T08:15:56;12.20;99.90
12557;DHT22;6344;49.932;8.308;2023-04-28T08:18:24;12.40;99.90
12557;DHT22;6344;49.932;8.308;2023-04-28T08:20:51;12.60;99.90
12557;DHT22;6344;49.932;8.308;2023-04-28T08:23:18;12.50;99.90
12557;DHT22;6344;49.932;8.308;2023-04-28T08:25:45;12.80;99.90
12557;DHT22;6344;49.932;8.308;2023-04-28T08:28:12;13.10;99.90
12557;DHT22;6344;49.932;8.308;2023-04-28T08:30:39;13.20;99.90
12557;DHT22;6344;49.932;8.308;2023-04-28T08:33:07;13.00;99.90
12557;DHT22;6344;49.932;8.308;2023-04-28T08:35:33;13.00;99.90
12557;DHT22;6344;49.932;8.308;2023-04-28T08:38:00;12.90;99.90
12557;DHT22;6344;49.932;8.308;2023-04-28T08:40:26;13.20;99.90
12557;DHT22;6344;49.932;8.308;2023-04-28T08:42:55;13.50;99.90
12557;DHT22;6344;49.932;8.308;2023-04-28T08:45:23;13.60;99.90
12557;DHT22;6344;49.932;8.308;2023-04-28T08:47:50;13.70;99.90
12557;DHT22;6344;49.932;8.308;2023-04-28T08:50:20;13.90;99.90
12557;DHT22;6344;49.932;8.308;2023-04-28T08:52:47;14.20;99.90
12557;DHT22;6344;49.932;8.308;2023-04-28T08:55:17;14.40;99.90
12557;DHT22;6344;49.932;8.308;2023-04-28T08:57:47;15.10;99.90
12557;DHT22;6344;49.932;8.308;2023-04-28T09:00:16;14.80;99.90
12557;DHT22;6344;49.932;8.308;2023-04-28T09:02:42;15.20;99.90
12557;DHT22;6344;49.932;8.308;2023-04-28T09:05:10;15.20;99.90
12557;DHT22;6344;49.932;8.308;2023-04-28T09:07:39;14.80;99.90
12557;DHT22;6344;49.932;8.308;2023-04-28T09:10:19;14.80;99.90
12557;DHT22;6344;49.932;8.308;2023-04-28T09:12:47;15.10;99.90
12557;DHT22;6344;49.932;8.308;2023-04-28T09:15:28;15.20;99.90
12557;DHT22;6344;49.932;8.308;2023-04-28T09:17:55;15.10;99.90
12557;DHT22;6344;49.932;8.308;2023-04-28T09:20:23;15.10;99.90
12557;DHT22;6344;49.932;8.308;2023-04-28T09:22:52;15.30;99.90
12557;DHT22;6344;49.932;8.308;2023-04-28T09:25:19;15.60;99.90
12557;DHT22;6344;49.932;8.308;2023-04-28T09:27:47;15.60;99.90
12557;DHT22;6344;49.932;8.308;2023-04-28T09:30:14;16.00;99.90
12557;DHT22;6344;49.932;8.308;2023-04-28T09:32:41;16.40;99.90
12557;DHT22;6344;49.932;8.308;2023-04-28T09:35:08;16.50;99.90
12557;DHT22;6344;49.932;8.308;2023-04-28T09:37:35;16.70;99.90
12557;DHT22;6344;49.932;8.308;2023-04-28T09:40:05;16.60;99.90
12557;DHT22;6344;49.932;8.308;2023-04-28T09:42:34;16.80;99.90
12557;DHT22;6344;49.932;8.308;2023-04-28T09:45:02;16.60;99.90
12557;DHT22;6344;49.932;8.308;2023-04-28T09:47:29;16.60;99.90
12557;DHT22;6344;49.932;8.308;2023-04-28T09:49:59;16.40;99.90
12557;DHT22;6344;49.932;8.308;2023-04-28T09:52:26;16.20;99.90
12557;DHT22;6344;49.932;8.308;2023-04-28T09:54:54;16.40;99.90
12557;DHT22;6344;49.932;8.308;2023-04-28T09:57:22;16.60;99.90
12557;DHT22;6344;49.932;8.308;2023-04-28T09:59:51;17.00;99.90
12557;DHT22;6344;49.932;8.308;2023-04-28T10:02:19;16.40;99.90
12557;DHT22;6344;49.932;8.308;2023-04-28T10:04:47;17.30;99.90
12557;DHT22;6344;49.932;8.308;2023-04-28T10:07:15;17.00;99.90
12557;DHT22;6344;49.932;8.308;2023-04-28T10:09:42;17.30;99.90
12557;DHT22;6344;49.932;8.308;2023-04-28T10:12:12;17.90;99.90
12557;DHT22;6344;49.932;8.308;2023-04-28T10:14:41;18.10;99.90
12557;DHT22;6344;49.932;8.308;2023-04-28T10:17:09;18.80;23.40
12557;DHT22;6344;49.932;8.308;2023-04-28T10:19:37;18.80;51.30
12557;DHT22;6344;49.932;8.308;2023-04-28T10:22:28;18.10;93.50
12557;DHT22;6344;49.932;8.308;2023-04-28T10:25:19;17.80;99.90
12557;DHT22;6344;49.932;8.308;2023-04-28T10:27:50;17.40;99.90
12557;DHT22;6344;49.932;8.308;2023-04-28T10:30:20;17.50;99.90
12557;DHT22;6344;49.932;8.308;2023-04-28T10:32:47;17.20;99.90
12557;DHT22;6344;49.932;8.308;2023-04-28T10:35:41;17.00;99.90
12557;DHT22;6344;49.932;8.308;2023-04-28T10:38:09;16.90;99.90
12557;DHT22;6344;49.932;8.308;2023-04-28T10:40:38;16.80;99.90
12557;DHT22;6344;49.932;8.308;2023-04-28T10:43:06;17.00;99.90
12557;DHT22;6344;49.932;8.308;2023-04-28T10:46:02;16.60;99.90
12557;DHT22;6344;49.932;8.308;2023-04-28T10:48:53;16.60;99.90
12557;DHT22;6344;49.932;8.308;2023-04-28T10:51:28;16.50;99.90
12557;DHT22;6344;49.932;8.308;2023-04-28T10:54:15;17.10;99.90
12557;DHT22;6344;49.932;8.308;2023-04-28T10:57:15;17.60;99.90
12557;DHT22;6344;49.932;8.308;2023-04-28T10:59:43;17.50;68.30
12557;DHT22;6344;49.932;8.308;2023-04-28T11:02:42;17.30;92.80
12557;DHT22;6344;49.932;8.308;2023-04-28T11:05:16;17.50;64.00
12557;DHT22;6344;49.932;8.308;2023-04-28T11:11:12;18.80;1.00
12557;DHT22;6344;49.932;8.308;2023-04-28T11:13:39;18.90;1.00
12557;DHT22;6344;49.932;8.308;2023-04-28T11:16:06;18.90;1.00
12557;DHT22;6344;49.932;8.308;2023-04-28T11:18:53;18.90;1.00
12557;DHT22;6344;49.932;8.308;2023-04-28T11:21:22;18.80;1.00
12557;DHT22;6344;49.932;8.308;2023-04-28T11:23:49;18.60;23.20
12557;DHT22;6344;49.932;8.308;2023-04-28T11:26:17;18.40;10.20
12557;DHT22;6344;49.932;8.308;2023-04-28T11:28:48;17.90;92.10
12557;DHT22;6344;49.932;8.308;2023-04-28T11:31:16;17.80;99.90
12557;DHT22;6344;49.932;8.308;2023-04-28T11:33:49;17.40;99.90
12557;DHT22;6344;49.932;8.308;2023-04-28T11:36:23;17.50;99.90
12557;DHT22;6344;49.932;8.308;2023-04-28T11:38:50;17.30;99.90
12557;DHT22;6344;49.932;8.308;2023-04-28T11:41:17;17.50;99.90
12557;DHT22;6344;49.932;8.308;2023-04-28T11:43:44;17.50;99.90
12557;DHT22;6344;49.932;8.308;2023-04-28T11:46:18;17.50;99.90
12557;DHT22;6344;49.932;8.308;2023-04-28T11:48:47;17.40;99.90
12557;DHT22;6344;49.932;8.308;2023-04-28T11:51:32;17.70;99.90
12557;DHT22;6344;49.932;8.308;2023-04-28T11:54:00;17.70;99.90
12557;DHT22;6344;49.932;8.308;2023-04-28T11:56:27;17.40;99.90
12557;DHT22;6344;49.932;8.308;2023-04-28T11:59:04;17.70;99.90
12557;DHT22;6344;49.932;8.308;2023-04-28T12:01:33;17.80;99.90
12557;DHT22;6344;49.932;8.308;2023-04-28T12:04:03;17.40;99.90
12557;DHT22;6344;49.932;8.308;2023-04-28T12:06:29;17.50;99.90
12557;DHT22;6344;49.932;8.308;2023-04-28T12:08:56;17.50;99.90
12557;DHT22;6344;49.932;8.308;2023-04-28T12:11:28;18.10;99.90
12557;DHT22;6344;49.932;8.308;2023-04-28T12:14:02;19.90;99.90
12557;DHT22;6344;49.932;8.308;2023-04-28T12:16:42;20.70;99.90
12557;DHT22;6344;49.932;8.308;2023-04-28T12:19:11;22.30;99.90
12557;DHT22;6344;49.932;8.308;2023-04-28T12:21:40;22.70;99.90
12557;DHT22;6344;49.932;8.308;2023-04-28T12:24:17;23.20;99.90
12557;DHT22;6344;49.932;8.308;2023-04-28T12:26:44;22.90;99.90
12557;DHT22;6344;49.932;8.308;2023-04-28T12:29:35;23.30;99.90
12557;DHT22;6344;49.932;8.308;2023-04-28T12:32:03;23.00;99.90
12557;DHT22;6344;49.932;8.308;2023-04-28T12:34:32;23.50;99.90
12557;DHT22;6344;49.932;8.308;2023-04-28T12:36:59;24.10;99.90
12557;DHT22;6344;49.932;8.308;2023-04-28T12:39:26;23.90;99.90
12557;DHT22;6344;49.932;8.308;2023-04-28T12:41:52;23.40;99.90
12557;DHT22;6344;49.932;8.308;2023-04-28T12:44:19;23.70;99.90
12557;DHT22;6344;49.932;8.308;2023-04-28T12:46:46;23.60;99.90
12557;DHT22;6344;49.932;8.308;2023-04-28T12:49:13;22.70;99.90
12557;DHT22;6344;49.932;8.308;2023-04-28T12:51:42;22.40;99.90
12557;DHT22;6344;49.932;8.308;2023-04-28T12:54:08;22.10;99.90
12557;DHT22;6344;49.932;8.308;2023-04-28T12:56:35;21.90;99.90
12557;DHT22;6344;49.932;8.308;2023-04-28T12:59:02;21.70;99.90
12557;DHT22;6344;49.932;8.308;2023-04-28T13:01:29;21.00;99.90
12557;DHT22;6344;49.932;8.308;2023-04-28T13:03:55;21.00;99.90
12557;DHT22;6344;49.932;8.308;2023-04-28T13:06:22;20.90;99.90
12557;DHT22;6344;49.932;8.308;2023-04-28T13:08:50;20.90;99.90
12557;DHT22;6344;49.932;8.308;2023-04-28T13:11:17;20.60;99.90
12557;DHT22;6344;49.932;8.308;2023-04-28T13:13:43;20.50;99.90
12557;DHT22;6344;49.932;8.308;2023-04-28T13:16:10;20.70;99.90
12557;DHT22;6344;49.932;8.308;2023-04-28T13:18:38;20.60;99.90
12557;DHT22;6344;49.932;8.308;2023-04-28T13:21:05;20.40;99.90
12557;DHT22;6344;49.932;8.308;2023-04-28T13:23:32;20.00;99.90
12557;DHT22;6344;49.932;8.308;2023-04-28T13:26:00;20.10;99.90
12557;DHT22;6344;49.932;8.308;2023-04-28T13:28:28;20.20;99.90
12557;DHT22;6344;49.932;8.308;2023-04-28T13:30:55;20.20;99.90
12557;DHT22;6344;49.932;8.308;2023-04-28T13:33:22;20.10;99.90
12557;DHT22;6344;49.932;8.308;2023-04-28T13:35:55;20.10;99.90
12557;DHT22;6344;49.932;8.308;2023-04-28T13:38:22;20.10;99.90
12557;DHT22;6344;49.932;8.308;2023-04-28T13:40:49;19.70;99.90
12557;DHT22;6344;49.932;8.308;2023-04-28T13:43:17;19.50;99.90
12557;DHT22;6344;49.932;8.308;2023-04-28T13:45:43;19.50;99.90
12557;DHT22;6344;49.932;8.308;2023-04-28T13:48:10;19.50;99.90
12557;DHT22;6344;49.932;8.308;2023-04-28T13:50:37;19.50;99.90
12557;DHT22;6344;49.932;8.308;2023-04-28T13:53:04;19.30;99.90
12557;DHT22;6344;49.932;8.308;2023-04-28T13:55:30;19.60;99.90
12557;DHT22;6344;49.932;8.308;2023-04-28T13:57:57;19.80;99.90
12557;DHT22;6344;49.932;8.308;2023-04-28T14:00:28;19.50;99.90
12557;DHT22;6344;49.932;8.308;2023-04-28T14:02:55;19.50;99.90
12557;DHT22;6344;49.932;8.308;2023-04-28T14:05:22;19.60;99.90
12557;DHT22;6344;49.932;8.308;2023-04-28T14:07:48;19.40;99.90
12557;DHT22;6344;49.932;8.308;2023-04-28T14:10:15;20.00;99.90
12557;DHT22;6344;49.932;8.308;2023-04-28T14:12:41;20.10;99.90
12557;DHT22;6344;49.932;8.308;2023-04-28T14:15:08;19.70;99.90
12557;DHT22;6344;49.932;8.308;2023-04-28T14:17:36;19.60;99.90
12557;DHT22;6344;49.932;8.308;2023-04-28T14:20:04;20.30;99.90
12557;DHT22;6344;49.932;8.308;2023-04-28T14:22:31;21.20;94.80
12557;DHT22;6344;49.932;8.308;2023-04-28T14:24:58;22.00;1.00
12557;DHT22;6344;49.932;8.308;2023-04-28T14:27:24;21.50;1.00
12557;DHT22;6344;49.932;8.308;2023-04-28T14:29:52;20.90;1.00
12557;DHT22;6344;49.932;8.308;2023-04-28T14:32:18;20.60;12.20
12557;DHT22;6344;49.932;8.308;2023-04-28T14:34:48;20.50;99.90
12557;DHT22;6344;49.932;8.308;2023-04-28T14:37:15;20.00;99.90
12557;DHT22;6344;49.932;8.308;2023-04-28T14:39:42;20.10;99.90
12557;DHT22;6344;49.932;8.308;2023-04-28T14:42:09;20.40;99.90
12557;DHT22;6344;49.932;8.308;2023-04-28T14:44:36;20.20;99.90
12557;DHT22;6344;49.932;8.308;2023-04-28T14:47:03;19.40;99.90
12557;DHT22;6344;49.932;8.308;2023-04-28T14:49:31;19.30;99.90
12557;DHT22;6344;49.932;8.308;2023-04-28T14:51:59;19.60;99.90
12557;DHT22;6344;49.932;8.308;2023-04-28T14:54:26;20.20;99.90
12557;DHT22;6344;49.932;8.308;2023-04-28T14:56:53;20.10;99.90
12557;DHT22;6344;49.932;8.308;2023-04-28T14:59:20;20.30;99.90
12557;DHT22;6344;49.932;8.308;2023-04-28T15:01:47;20.50;99.90
12557;DHT22;6344;49.932;8.308;2023-04-28T15:04:14;21.00;98.50
12557;DHT22;6344;49.932;8.308;2023-04-28T15:06:41;22.50;99.90
12557;DHT22;6344;49.932;8.308;2023-04-28T15:09:09;23.50;99.90
12557;DHT22;6344;49.932;8.308;2023-04-28T15:11:36;24.20;99.90
12557;DHT22;6344;49.932;8.308;2023-04-28T15:14:02;24.10;99.90
12557;DHT22;6344;49.932;8.308;2023-04-28T15:16:29;23.80;99.90
12557;DHT22;6344;49.932;8.308;2023-04-28T15:18:56;24.60;99.90
12557;DHT22;6344;49.932;8.308;2023-04-28T15:21:22;24.50;99.90
12557;DHT22;6344;49.932;8.308;2023-04-28T15:23:49;24.80;99.90
12557;DHT22;6344;49.932;8.308;2023-04-28T15:26:17;25.00;99.90
12557;DHT22;6344;49.932;8.308;2023-04-28T15:28:44;24.80;99.90
12557;DHT22;6344;49.932;8.308;2023-04-28T15:31:11;24.30;99.90
12557;DHT22;6344;49.932;8.308;2023-04-28T15:33:37;23.10;99.90
12557;DHT22;6344;49.932;8.308;2023-04-28T15:36:04;22.90;99.90
12557;DHT22;6344;49.932;8.308;2023-04-28T15:38:31;22.60;99.90
12557;DHT22;6344;49.932;8.308;2023-04-28T15:40:58;22.90;99.90
12557;DHT22;6344;49.932;8.308;2023-04-28T15:43:26;22.80;99.90
12557;DHT22;6344;49.932;8.308;2023-04-28T15:45:53;22.80;99.90
12557;DHT22;6344;49.932;8.308;2023-04-28T15:48:19;22.70;1.00
12557;DHT22;6344;49.932;8.308;2023-04-28T15:50:47;22.90;99.90
12557;DHT22;6344;49.932;8.308;2023-04-28T15:53:14;22.90;99.90
12557;DHT22;6344;49.932;8.308;2023-04-28T15:55:41;23.70;99.90